CMB weather

Bandaranaike International Colombo Airport
Colombo, Western Province, Sri Lanka

Public forecast

Using degrees Celsius for public forecast. Weather courtesy of forecast.io.

METAR (pilot weather report)

Retrieved 2017/06/22 20:10 UTC (36 seconds ago):

VCBI 222010Z 21012KT 9999 FEW016 28/24 Q1010 NOSIG

TAF (pilot weather forecast)

Forecast is more than 6 hours old.

Retrieved 2017/06/22 12:00 UTC (8 hours ago):

TAF VCBI 220940Z 2212/2318 22012KT 9999 SCT016 TX31/2308Z TN27/2300Z PROB40 TEMPO 2212/2217 2223/2303 6000 -SHRA FEW012 SCT016 FEW020CB